Time;durP1;ratioP1;P1;durP2;ratioP2;P2;SDS_P1;SDS_P2;PMS_P1;PMS_P2;Temp;Humidity;BMP_temperature;BMP_pressure;BME280_temperature;BME280_humidity;BME280_pressure;Samples;Min_cycle;Max_cycle;Signal;HPM_P1;HPM_P2
2023/03/07 00:02:43;;;;;;;60.20;32.40;;;;;;;0.92;86.89;97521.90;135764;1272;22539;-84
2023/03/07 00:05:46;;;;;;;62.20;33.90;;;;;;;0.90;87.00;97522.21;135727;1272;22548;-84
2023/03/07 00:08:48;;;;;;;61.70;33.90;;;;;;;0.87;86.82;97522.08;135789;1272;22539;-85
2023/03/07 00:11:51;;;;;;;57.00;32.00;;;;;;;0.84;87.01;97520.94;135762;1272;22565;-83
2023/03/07 00:14:54;;;;;;;58.90;32.70;;;;;;;0.80;87.06;97517.92;135795;1272;22634;-84
2023/03/07 00:17:58;;;;;;;64.10;32.90;;;;;;;0.77;86.99;97514.92;135748;1272;22656;-83
2023/03/07 00:21:01;;;;;;;65.80;33.60;;;;;;;0.74;87.22;97516.55;135743;1272;22523;-84
2023/03/07 00:24:04;;;;;;;63.00;34.60;;;;;;;0.72;87.18;97517.35;135734;1272;22547;-82
2023/03/07 00:27:07;;;;;;;64.50;33.60;;;;;;;0.70;87.37;97514.54;135728;1272;22523;-85
2023/03/07 00:30:11;;;;;;;65.50;34.30;;;;;;;0.68;87.22;97514.14;135785;1272;22548;-84
2023/03/07 00:33:13;;;;;;;65.10;33.80;;;;;;;0.69;87.54;97512.29;135739;1272;22527;-84
2023/03/07 00:36:16;;;;;;;67.90;35.10;;;;;;;0.68;87.32;97515.69;135750;1272;24371;-85
2023/03/07 00:39:18;;;;;;;64.90;34.80;;;;;;;0.67;87.40;97513.09;135684;1272;22525;-83
2023/03/07 00:42:21;;;;;;;69.10;34.70;;;;;;;0.68;87.41;97511.58;135746;1272;22542;-83
2023/03/07 00:45:23;;;;;;;61.00;33.40;;;;;;;0.68;87.44;97508.32;135717;1272;22539;-83
2023/03/07 00:48:25;;;;;;;63.20;34.10;;;;;;;0.66;87.35;97504.85;135851;1272;24880;-85
2023/03/07 00:51:28;;;;;;;66.70;33.70;;;;;;;0.64;87.10;97505.50;135721;1272;22533;-83
2023/03/07 00:54:30;;;;;;;66.80;33.00;;;;;;;0.63;86.94;97503.22;135710;1272;22528;-83
2023/03/07 00:57:33;;;;;;;62.70;33.40;;;;;;;0.59;87.10;97503.46;135711;1272;22531;-84
2023/03/07 01:00:35;;;;;;;68.20;34.20;;;;;;;0.57;87.31;97506.99;135732;1269;22553;-85
2023/03/07 01:03:37;;;;;;;67.50;34.30;;;;;;;0.55;87.49;97507.11;135699;1272;22543;-83
2023/03/07 01:06:40;;;;;;;66.00;34.60;;;;;;;0.52;87.43;97504.80;135721;1272;24909;-84
2023/03/07 01:09:42;;;;;;;62.00;34.50;;;;;;;0.47;87.33;97503.61;135727;1272;22530;-85
2023/03/07 01:12:47;;;;;;;63.60;33.20;;;;;;;0.41;87.14;97499.33;135749;1272;22547;-83
2023/03/07 01:15:49;;;;;;;68.80;34.00;;;;;;;0.35;87.35;97500.70;135774;1272;22562;-84
2023/03/07 01:18:52;;;;;;;69.60;35.80;;;;;;;0.33;87.36;97498.56;135831;1272;22534;-84
2023/03/07 01:21:54;;;;;;;92.80;42.60;;;;;;;0.31;87.42;97498.02;135739;1272;22541;-84
2023/03/07 01:24:57;;;;;;;70.40;37.00;;;;;;;0.31;87.41;97494.08;135710;1272;22528;-85
2023/03/07 01:27:59;;;;;;;73.60;36.30;;;;;;;0.31;87.29;97495.11;135759;1272;25337;-82
2023/03/07 01:31:01;;;;;;;71.60;36.50;;;;;;;0.37;87.53;97496.12;135702;1272;22534;-83
2023/03/07 01:34:04;;;;;;;67.50;36.10;;;;;;;0.43;87.78;97490.98;135709;1272;22618;-81
2023/03/07 01:37:06;;;;;;;71.30;35.40;;;;;;;0.49;87.96;97486.06;135719;1272;22546;-83
2023/03/07 01:40:09;;;;;;;65.70;34.10;;;;;;;0.56;87.81;97485.05;135725;1272;22630;-83
2023/03/07 01:43:11;;;;;;;80.50;36.80;;;;;;;0.60;87.78;97482.10;135710;1272;22543;-83
2023/03/07 01:46:14;;;;;;;65.00;35.30;;;;;;;0.63;87.61;97476.18;135716;1272;22539;-82
2023/03/07 01:49:16;;;;;;;72.90;35.30;;;;;;;0.66;87.61;97475.91;135676;1272;22605;-83
2023/03/07 01:52:19;;;;;;;67.80;33.30;;;;;;;0.70;87.62;97473.13;135733;1272;22647;-81
2023/03/07 01:55:21;;;;;;;76.20;37.90;;;;;;;0.75;87.67;97471.71;135710;1272;24194;-83
2023/03/07 01:58:23;;;;;;;66.10;35.40;;;;;;;0.80;87.53;97466.73;135740;1272;22555;-82
2023/03/07 02:01:26;;;;;;;72.00;36.70;;;;;;;0.88;87.59;97467.48;135707;1253;24329;-83
2023/03/07 02:04:28;;;;;;;75.40;37.40;;;;;;;0.96;87.46;97469.09;135719;1272;22595;-83
2023/03/07 02:07:31;;;;;;;67.30;34.90;;;;;;;1.01;87.30;97470.24;135714;1272;22518;-82
2023/03/07 02:10:33;;;;;;;69.50;36.40;;;;;;;1.07;87.23;97469.38;135727;1272;24738;-82
2023/03/07 02:13:35;;;;;;;70.10;36.90;;;;;;;1.14;87.14;97466.15;135710;1272;22547;-83
2023/03/07 02:16:38;;;;;;;71.90;35.20;;;;;;;1.21;87.10;97467.87;135681;1269;22533;-83
2023/03/07 02:19:40;;;;;;;76.20;38.60;;;;;;;1.26;86.77;97472.81;135603;1272;22546;-83
2023/03/07 02:22:43;;;;;;;66.80;34.30;;;;;;;1.26;86.42;97471.95;135691;1272;22621;-82
2023/03/07 02:25:45;;;;;;;68.10;34.10;;;;;;;1.25;86.45;97472.42;135708;1272;22633;-82
2023/03/07 02:28:48;;;;;;;66.20;34.70;;;;;;;1.25;86.49;97475.17;135750;1272;22546;-82
2023/03/07 02:31:50;;;;;;;68.80;33.50;;;;;;;1.26;86.39;97472.98;135723;1272;24193;-83
2023/03/07 02:34:53;;;;;;;61.90;35.00;;;;;;;1.26;86.31;97477.27;135739;1272;22617;-83
2023/03/07 02:37:55;;;;;;;64.50;34.20;;;;;;;1.25;86.42;97478.09;135678;1272;22545;-82
2023/03/07 02:40:57;;;;;;;72.50;34.50;;;;;;;1.26;86.25;97476.06;135662;1272;23586;-83
2023/03/07 02:44:00;;;;;;;68.20;34.50;;;;;;;1.26;86.18;97472.12;135687;1272;22543;-82
2023/03/07 02:47:04;;;;;;;71.80;34.80;;;;;;;1.26;86.16;97471.95;135690;1272;22553;-82
2023/03/07 02:50:06;;;;;;;65.70;34.70;;;;;;;1.26;86.36;97465.96;135718;1272;22512;-81
2023/03/07 02:53:09;;;;;;;63.20;33.50;;;;;;;1.31;86.19;97467.45;135633;1272;22538;-82
2023/03/07 02:56:11;;;;;;;62.60;32.50;;;;;;;1.35;86.19;97466.85;135700;1272;24194;-82
2023/03/07 02:59:14;;;;;;;64.10;32.20;;;;;;;1.40;86.09;97468.02;135628;1269;22538;-81
2023/03/07 03:02:16;;;;;;;62.10;32.50;;;;;;;1.45;85.96;97472.59;135656;1272;22549;-80
2023/03/07 03:05:18;;;;;;;55.90;30.30;;;;;;;1.46;85.78;97472.98;135560;1272;199536;-82
2023/03/07 03:08:21;;;;;;;56.00;31.00;;;;;;;1.49;85.70;97467.39;135706;1250;22534;-82
2023/03/07 03:11:23;;;;;;;56.30;30.90;;;;;;;1.50;85.61;97470.83;135815;1272;22584;-82
2023/03/07 03:14:26;;;;;;;56.00;31.70;;;;;;;1.53;85.56;97469.20;135703;1272;22542;-82
2023/03/07 03:17:28;;;;;;;52.20;30.50;;;;;;;1.59;85.61;97462.67;135704;1272;24299;-82
2023/03/07 03:20:31;;;;;;;69.60;35.30;;;;;;;1.61;85.23;97463.91;135762;1272;22593;-81
2023/03/07 03:23:33;;;;;;;62.80;35.40;;;;;;;1.64;85.13;97459.69;135745;1272;22550;-81
2023/03/07 03:26:38;;;;;;;62.80;35.30;;;;;;;1.68;84.98;97459.45;135670;1272;26033;-81
2023/03/07 03:29:40;;;;;;;;;;;;;;;1.68;84.90;97461.52;135711;1272;26001;-82
2023/03/07 03:32:46;;;;;;;54.60;30.70;;;;;;;1.64;84.75;97458.50;135683;1250;22524;-81
2023/03/07 03:35:48;;;;;;;62.60;34.50;;;;;;;1.63;84.86;97460.71;135690;1272;22549;-81
2023/03/07 03:38:52;;;;;;;63.50;36.50;;;;;;;1.66;85.20;97463.35;135670;1272;22545;-81
2023/03/07 03:41:55;;;;;;;65.80;35.10;;;;;;;1.69;84.81;97465.49;135618;1272;22539;-80
2023/03/07 03:44:58;;;;;;;60.10;33.40;;;;;;;1.67;84.74;97466.46;135603;1272;22517;-81
2023/03/07 03:48:00;;;;;;;65.30;34.70;;;;;;;1.64;84.53;97464.50;135617;1272;22545;-82
2023/03/07 03:51:03;;;;;;;58.90;33.00;;;;;;;1.63;84.53;97466.36;135683;1272;22538;-82
2023/03/07 03:54:06;;;;;;;55.30;31.60;;;;;;;1.63;84.69;97463.45;135707;1272;25002;-83
2023/03/07 03:57:09;;;;;;;57.80;29.30;;;;;;;1.64;84.57;97464.86;135708;1272;22533;-83
2023/03/07 04:00:14;;;;;;;56.40;29.60;;;;;;;1.66;84.62;97461.81;135698;1272;22539;-83
2023/03/07 04:03:17;;;;;;;63.60;33.30;;;;;;;1.70;84.56;97458.48;135715;1272;22534;-83
2023/03/07 04:06:19;;;;;;;58.80;33.80;;;;;;;1.70;84.35;97458.48;135817;1272;22545;-82
2023/03/07 04:09:22;;;;;;;57.20;32.70;;;;;;;1.74;84.42;97461.00;135807;1272;22533;-81
2023/03/07 04:12:24;;;;;;;54.90;31.20;;;;;;;1.79;84.58;97461.98;135848;1272;22636;-82
2023/03/07 04:15:26;;;;;;;53.30;31.10;;;;;;;1.81;84.19;97459.98;135721;1272;22537;-82
2023/03/07 04:18:29;;;;;;;50.50;27.90;;;;;;;1.84;84.34;97459.89;135921;1272;23715;-83
2023/03/07 04:21:31;;;;;;;52.00;29.50;;;;;;;1.85;84.16;97461.61;135892;1272;22530;-83
2023/03/07 04:24:34;;;;;;;52.40;28.50;;;;;;;1.82;84.06;97463.79;135773;1272;22550;-84
2023/03/07 04:27:36;;;;;;;51.20;29.40;;;;;;;1.82;84.19;97457.09;135795;1272;25407;-83
2023/03/07 04:30:39;;;;;;;52.30;29.70;;;;;;;1.83;84.13;97457.80;135950;1272;22539;-83
2023/03/07 04:33:41;;;;;;;53.40;31.70;;;;;;;1.81;84.23;97454.50;136100;1272;22718;-82
2023/03/07 04:36:44;;;;;;;55.00;29.60;;;;;;;1.80;84.23;97451.38;135937;1272;22599;-83
2023/03/07 04:39:46;;;;;;;55.30;30.50;;;;;;;1.78;84.13;97450.83;135985;1272;22550;-83
2023/03/07 04:42:49;;;;;;;57.00;30.70;;;;;;;1.80;84.44;97451.89;135913;1272;22539;-82
2023/03/07 04:45:51;;;;;;;53.90;29.80;;;;;;;1.82;84.46;97449.89;135836;1272;25390;-83
2023/03/07 04:48:53;;;;;;;52.60;30.30;;;;;;;1.85;84.46;97450.30;135957;1262;25756;-82
2023/03/07 04:51:56;;;;;;;54.50;30.60;;;;;;;1.84;84.43;97452.35;136027;1250;22552;-83
2023/03/07 04:54:58;;;;;;;55.00;30.60;;;;;;;1.81;84.26;97450.39;136016;1272;22537;-83
2023/03/07 04:58:01;;;;;;;51.40;30.00;;;;;;;1.83;84.63;97452.13;135826;1272;22551;-83
2023/03/07 05:01:03;;;;;;;50.00;29.60;;;;;;;1.86;84.59;97451.19;136091;1272;22527;-82
2023/03/07 05:04:06;;;;;;;59.40;30.90;;;;;;;1.88;84.76;97449.70;136235;1251;24196;-83
2023/03/07 05:07:08;;;;;;;53.40;29.90;;;;;;;1.90;84.89;97446.65;135995;1272;22543;-83
2023/03/07 05:10:11;;;;;;;50.40;30.10;;;;;;;1.91;84.71;97441.02;136079;1272;22571;-82
2023/03/07 05:13:13;;;;;;;55.20;30.90;;;;;;;1.91;84.79;97438.44;136548;1272;23009;-82
2023/03/07 05:16:16;;;;;;;56.90;33.40;;;;;;;1.91;84.80;97439.46;136523;1272;22489;-81
2023/03/07 05:19:18;;;;;;;45.50;25.20;;;;;;;2.09;89.79;97439.52;136509;1272;25183;-84
2023/03/07 05:22:21;;;;;;;61.60;34.70;;;;;;;4.59;94.16;97427.96;136481;1272;22546;-82
2023/03/07 05:25:23;;;;;;;67.70;38.70;;;;;;;4.64;82.67;97431.53;136797;1269;22543;-81
2023/03/07 05:28:26;;;;;;;55.70;34.00;;;;;;;4.02;80.84;97433.91;136747;1272;22533;-82
2023/03/07 05:31:28;;;;;;;50.00;30.50;;;;;;;3.56;80.81;97439.38;136925;1272;22554;-81
2023/03/07 05:34:31;;;;;;;53.40;29.20;;;;;;;3.21;80.95;97442.86;136904;1272;22521;-81
2023/03/07 05:37:33;;;;;;;49.30;30.30;;;;;;;2.92;81.41;97436.48;136820;1272;22550;-82
2023/03/07 05:40:36;;;;;;;52.70;28.40;;;;;;;2.67;82.06;97439.77;137119;1272;22501;-82
2023/03/07 05:43:38;;;;;;;51.60;30.30;;;;;;;2.51;82.79;97440.61;136746;1272;23371;-78
2023/03/07 05:46:41;;;;;;;52.10;30.30;;;;;;;2.43;83.38;97445.08;135483;1272;22508;-82
2023/03/07 05:49:43;;;;;;;47.30;29.30;;;;;;;2.37;83.77;97445.27;136154;1272;22530;-80
2023/03/07 05:52:45;;;;;;;50.20;30.40;;;;;;;2.32;84.26;97444.67;135235;1272;24193;-81
2023/03/07 05:55:48;;;;;;;88.80;33.70;;;;;;;2.36;87.01;97443.38;135116;1272;22558;-83
2023/03/07 05:58:50;;;;;;;53.70;30.50;;;;;;;4.70;96.33;97437.71;136545;1272;23157;-81
2023/03/07 06:01:53;;;;;;;51.50;30.50;;;;;;;5.14;83.26;97436.08;136709;1272;22802;-81
2023/03/07 06:04:55;;;;;;;53.90;30.70;;;;;;;4.43;80.65;97438.64;135413;1272;22534;-81
2023/03/07 06:07:58;;;;;;;56.60;33.80;;;;;;;3.88;80.39;97440.77;135317;1262;24227;-81
2023/03/07 06:11:00;;;;;;;65.40;37.70;;;;;;;3.53;80.91;97435.20;135379;1272;22645;-82
2023/03/07 06:14:03;;;;;;;64.90;37.10;;;;;;;3.33;81.39;97435.52;135336;1272;22529;-81
2023/03/07 06:17:05;;;;;;;65.90;38.90;;;;;;;3.13;81.79;97435.85;136269;1272;22525;-82
2023/03/07 06:20:08;;;;;;;65.20;37.40;;;;;;;2.99;82.35;97434.56;136197;1272;22662;-82
2023/03/07 06:23:11;;;;;;;58.00;35.10;;;;;;;2.90;82.69;97438.52;136326;1272;22542;-81
2023/03/07 06:26:15;;;;;;;;;;;;;;;2.84;83.12;97437.19;136505;1272;22548;-81
2023/03/07 06:29:18;;;;;;;66.10;37.20;;;;;;;2.80;83.36;97439.00;135195;1272;22535;-81
2023/03/07 06:32:20;;;;;;;65.40;37.40;;;;;;;2.84;83.66;97437.54;136644;1272;22508;-81
2023/03/07 06:35:23;;;;;;;67.70;38.70;;;;;;;2.91;83.58;97429.77;136576;1272;23097;-83
2023/03/07 06:38:30;;;;;;;71.80;40.10;;;;;;;3.08;83.76;97428.88;136815;1272;22531;-83
2023/03/07 06:41:32;;;;;;;82.20;44.30;;;;;;;3.29;83.53;97428.39;136841;1272;22609;-82
2023/03/07 06:44:35;;;;;;;85.10;45.70;;;;;;;3.37;83.18;97430.27;136920;1272;23184;-81
2023/03/07 06:47:38;;;;;;;82.60;46.50;;;;;;;3.38;83.02;97431.64;134930;1272;22599;-80
2023/03/07 06:50:40;;;;;;;84.90;47.50;;;;;;;3.37;82.77;97434.21;134953;1272;23390;-79
2023/03/07 06:53:43;;;;;;;86.70;46.50;;;;;;;3.38;82.82;97427.86;134855;1272;24553;-80
2023/03/07 06:56:46;;;;;;;78.90;47.40;;;;;;;3.35;82.93;97430.75;136811;1272;22563;-81
2023/03/07 06:59:48;;;;;;;80.30;48.70;;;;;;;3.29;82.92;97430.98;136869;1272;22564;-81
2023/03/07 07:02:50;;;;;;;81.40;51.30;;;;;;;3.24;83.18;97433.46;136695;1272;22539;-82
2023/03/07 07:05:53;;;;;;;64.10;39.60;;;;;;;3.23;83.08;97433.61;136660;1272;22550;-84
2023/03/07 07:08:56;;;;;;;70.10;39.40;;;;;;;3.15;82.97;97427.64;136505;1272;22568;-82
2023/03/07 07:11:58;;;;;;;70.40;41.00;;;;;;;3.18;83.12;97424.60;136451;1272;23293;-81
2023/03/07 07:15:03;;;;;;;79.10;45.10;;;;;;;3.27;83.20;97421.30;136468;1272;22564;-81
2023/03/07 07:18:06;;;;;;;85.30;49.20;;;;;;;3.34;83.22;97418.52;136712;1272;22565;-82
2023/03/07 07:21:08;;;;;;;88.80;53.40;;;;;;;3.44;83.09;97419.73;136499;1271;22565;-82
2023/03/07 07:24:11;;;;;;;79.20;45.70;;;;;;;3.53;83.00;97417.15;136421;1272;22582;-82
2023/03/07 07:27:15;;;;;;;67.20;41.10;;;;;;;3.63;82.67;97416.46;136636;1272;22540;-83
2023/03/07 07:30:18;;;;;;;61.30;39.40;;;;;;;3.74;82.54;97410.44;136805;1263;22556;-82
2023/03/07 07:33:20;;;;;;;79.70;44.70;;;;;;;3.88;82.26;97412.02;136810;1270;22103;-82
2023/03/07 07:36:23;;;;;;;67.30;41.80;;;;;;;4.11;82.24;97408.58;136580;1270;25390;-82
2023/03/07 07:39:25;;;;;;;62.00;39.30;;;;;;;4.31;81.66;97406.61;136621;1272;22876;-82
2023/03/07 07:42:28;;;;;;;62.10;39.10;;;;;;;4.44;81.17;97407.69;136507;1272;22596;-82
2023/03/07 07:45:31;;;;;;;60.70;39.30;;;;;;;4.58;81.27;97402.34;136659;1272;22516;-82
2023/03/07 07:48:34;;;;;;;59.00;38.20;;;;;;;4.60;80.78;97401.33;136584;1269;22893;-82
2023/03/07 07:51:39;;;;;;;58.00;35.80;;;;;;;4.59;80.54;97400.80;136434;1272;22544;-80
2023/03/07 07:54:42;;;;;;;56.70;34.40;;;;;;;4.59;80.36;97397.53;136478;1272;22514;-81
2023/03/07 07:57:44;;;;;;;55.70;33.80;;;;;;;4.65;80.42;97398.80;136354;1272;22486;-80
2023/03/07 08:00:47;;;;;;;55.30;37.40;;;;;;;4.68;79.86;97390.92;136501;1272;22578;-84
2023/03/07 08:03:50;;;;;;;52.30;34.70;;;;;;;4.67;79.53;97387.46;136540;1272;22557;-82
2023/03/07 08:06:53;;;;;;;52.90;34.10;;;;;;;4.65;79.23;97386.58;136478;1272;22583;-82
2023/03/07 08:09:55;;;;;;;49.80;33.70;;;;;;;4.70;79.19;97386.11;136837;1251;22567;-82
2023/03/07 08:12:58;;;;;;;54.50;33.80;;;;;;;4.79;78.75;97386.73;136844;1272;23329;-80
2023/03/07 08:16:01;;;;;;;49.30;31.90;;;;;;;4.79;77.76;97385.19;136859;1272;22542;-82
2023/03/07 08:19:03;;;;;;;45.60;31.20;;;;;;;4.84;77.54;97381.27;136874;1269;24512;-81
2023/03/07 08:22:06;;;;;;;45.30;31.30;;;;;;;4.94;77.16;97378.45;136649;1272;26219;-80
2023/03/07 08:25:08;;;;;;;51.00;33.40;;;;;;;5.11;76.95;97377.92;136422;1272;25979;-81
2023/03/07 08:28:10;;;;;;;44.70;29.50;;;;;;;5.22;76.40;97376.34;136728;1272;22543;-81
2023/03/07 08:31:13;;;;;;;46.60;31.40;;;;;;;5.31;75.24;97374.01;136607;1272;22500;-81
2023/03/07 08:34:16;;;;;;;42.30;29.70;;;;;;;5.31;75.02;97376.95;136693;1251;22547;-81
2023/03/07 08:37:18;;;;;;;46.50;31.90;;;;;;;5.39;74.81;97375.46;136850;1272;22553;-81
2023/03/07 08:40:21;;;;;;;43.70;30.70;;;;;;;5.43;74.42;97372.91;136714;1272;22586;-80
2023/03/07 08:43:25;;;;;;;41.40;28.70;;;;;;;5.61;74.78;97368.40;136514;1258;22548;-80
2023/03/07 08:46:27;;;;;;;40.10;26.00;;;;;;;5.87;73.67;97367.56;136492;1272;23406;-81
2023/03/07 08:49:30;;;;;;;40.20;26.50;;;;;;;6.03;71.41;97364.40;135170;1272;22886;-80
2023/03/07 08:52:32;;;;;;;35.60;25.50;;;;;;;6.06;71.13;97363.75;135090;1272;22834;-81
2023/03/07 08:55:35;;;;;;;36.00;25.70;;;;;;;6.23;71.02;97361.61;136728;1272;22568;-82
2023/03/07 08:58:37;;;;;;;34.70;25.30;;;;;;;6.35;70.88;97356.84;136531;1272;22556;-81
2023/03/07 09:01:40;;;;;;;37.20;25.50;;;;;;;6.48;70.49;97349.80;136733;1272;22554;-81
2023/03/07 09:04:42;;;;;;;31.60;22.30;;;;;;;6.58;71.07;97343.45;136635;1272;22545;-81
2023/03/07 09:07:45;;;;;;;31.30;22.90;;;;;;;6.74;70.16;97340.73;136634;1272;22536;-82
2023/03/07 09:10:49;;;;;;;28.90;20.70;;;;;;;6.83;68.52;97339.38;136663;1272;23151;-81
2023/03/07 09:13:51;;;;;;;30.10;21.90;;;;;;;6.80;67.40;97338.16;136803;1254;22536;-81
2023/03/07 09:16:54;;;;;;;26.60;19.40;;;;;;;6.72;65.93;97337.61;136846;1272;25516;-82
2023/03/07 09:19:58;;;;;;;23.00;17.30;;;;;;;6.53;65.20;97337.90;136968;1272;22621;-81
2023/03/07 09:23:00;;;;;;;34.40;20.10;;;;;;;6.46;65.15;97334.77;136907;1272;22633;-83
2023/03/07 09:26:04;;;;;;;28.70;18.20;;;;;;;6.56;66.81;97329.78;136768;1272;22967;-82
2023/03/07 09:29:06;;;;;;;24.20;17.60;;;;;;;6.75;65.15;97328.64;136720;1272;22576;-82
2023/03/07 09:32:09;;;;;;;25.70;18.60;;;;;;;6.74;63.89;97326.91;136767;1272;22551;-81
2023/03/07 09:35:11;;;;;;;25.20;17.90;;;;;;;6.76;63.91;97327.77;136547;1272;23080;-82
2023/03/07 09:38:15;;;;;;;28.40;20.20;;;;;;;6.81;63.91;97324.50;136693;1272;22590;-81
2023/03/07 09:41:18;;;;;;;28.70;20.00;;;;;;;6.89;63.74;97318.64;136674;1272;26979;-81
2023/03/07 09:44:20;;;;;;;27.30;16.70;;;;;;;6.91;63.04;97313.97;136597;1272;22927;-82
2023/03/07 09:47:24;;;;;;;31.80;19.50;;;;;;;6.88;62.00;97312.58;136730;1272;22914;-81
2023/03/07 09:50:26;;;;;;;26.80;17.90;;;;;;;6.81;61.49;97310.15;136827;1272;22514;-80
2023/03/07 09:53:29;;;;;;;28.70;18.80;;;;;;;6.69;60.88;97309.44;135200;1272;24802;-81
2023/03/07 09:56:33;;;;;;;26.00;17.50;;;;;;;6.60;61.00;97304.23;135078;1272;22568;-87
2023/03/07 09:59:36;;;;;;;26.90;17.90;;;;;;;6.56;61.42;97299.02;136668;1271;22536;-82
2023/03/07 10:02:38;;;;;;;25.80;16.80;;;;;;;6.52;60.53;97290.38;136782;1272;23017;-79
2023/03/07 10:05:41;;;;;;;25.00;16.90;;;;;;;6.65;60.56;97292.30;135120;1252;22615;-82
2023/03/07 10:08:43;;;;;;;27.50;18.50;;;;;;;6.78;60.19;97288.88;136612;1272;22541;-80
2023/03/07 10:11:46;;;;;;;25.90;16.90;;;;;;;6.86;60.92;97280.92;136332;1272;22591;-81
2023/03/07 10:14:48;;;;;;;25.40;17.40;;;;;;;6.88;59.78;97279.21;136224;1272;22595;-82
2023/03/07 10:17:53;;;;;;;26.90;17.10;;;;;;;6.80;60.52;97279.38;136376;1272;22522;-82
2023/03/07 10:20:59;;;;;;;24.50;16.30;;;;;;;6.79;60.03;97283.34;136634;1272;22938;-83
2023/03/07 10:24:02;;;;;;;22.30;16.40;;;;;;;6.96;59.45;97278.37;136308;1261;22658;-82
2023/03/07 10:27:05;;;;;;;23.30;15.70;;;;;;;7.25;59.89;97274.59;136447;1272;22570;-81
2023/03/07 10:30:08;;;;;;;23.80;15.70;;;;;;;7.30;58.19;97268.88;136465;1272;22543;-83
2023/03/07 10:33:10;;;;;;;23.60;15.80;;;;;;;7.29;57.67;97262.48;136305;1272;22899;-82
2023/03/07 10:36:13;;;;;;;18.70;14.20;;;;;;;7.40;56.96;97260.57;136529;1272;22554;-81
2023/03/07 10:39:16;;;;;;;21.10;14.90;;;;;;;7.57;55.86;97253.27;136470;1272;22578;-83
2023/03/07 10:42:22;;;;;;;17.70;14.50;;;;;;;7.82;55.66;97257.05;136495;1272;22570;-83
2023/03/07 10:45:24;;;;;;;18.00;12.70;;;;;;;7.97;54.37;97259.62;136495;1272;22582;-82
2023/03/07 10:48:28;;;;;;;18.20;13.60;;;;;;;7.78;54.04;97249.44;136539;1272;22540;-82
2023/03/07 10:51:31;;;;;;;19.90;14.20;;;;;;;7.72;55.01;97241.64;136541;1272;23112;-83
2023/03/07 10:54:33;;;;;;;18.50;14.70;;;;;;;7.91;54.65;97236.59;136508;1272;23004;-82
2023/03/07 10:57:36;;;;;;;18.70;13.70;;;;;;;8.21;55.74;97227.29;136650;1272;23527;-81
2023/03/07 11:00:39;;;;;;;17.60;13.50;;;;;;;8.37;54.69;97223.95;136649;1264;22594;-84
2023/03/07 11:03:44;;;;;;;16.80;12.60;;;;;;;8.47;52.89;97208.48;136418;1270;22517;-83
2023/03/07 11:06:47;;;;;;;16.10;13.40;;;;;;;8.41;52.76;97210.41;136267;1254;22554;-83
2023/03/07 11:09:51;;;;;;;15.60;13.00;;;;;;;8.29;52.52;97203.52;136575;1272;22622;-82
2023/03/07 11:12:54;;;;;;;16.30;13.20;;;;;;;8.27;52.43;97199.37;136398;1272;22843;-81
2023/03/07 11:15:56;;;;;;;22.40;13.60;;;;;;;8.19;51.94;97203.91;136516;1272;25418;-83
2023/03/07 11:19:02;;;;;;;18.90;13.70;;;;;;;8.03;52.28;97200.18;136777;1272;22547;-82
2023/03/07 11:22:05;;;;;;;20.00;14.20;;;;;;;7.82;51.67;97196.95;135582;1272;22628;-82
2023/03/07 11:25:07;;;;;;;17.10;13.50;;;;;;;7.54;51.87;97203.77;136496;1272;22566;-83
2023/03/07 11:28:10;;;;;;;20.10;14.00;;;;;;;7.32;53.21;97194.13;136681;1272;23034;-88
2023/03/07 11:31:12;;;;;;;29.60;13.60;;;;;;;7.32;53.82;97192.23;136611;1272;22582;-83
2023/03/07 11:34:15;;;;;;;18.50;13.20;;;;;;;7.42;53.12;97187.54;136494;1272;22579;-84
2023/03/07 11:37:18;;;;;;;18.40;13.70;;;;;;;7.47;53.72;97182.16;136740;1272;25443;-83
2023/03/07 11:40:20;;;;;;;21.00;14.50;;;;;;;7.65;53.33;97177.42;136853;1272;22590;-85
2023/03/07 11:43:24;;;;;;;23.10;14.30;;;;;;;7.66;52.67;97168.77;136657;1272;23314;-81
2023/03/07 11:46:26;;;;;;;18.80;13.10;;;;;;;7.48;51.67;97173.33;136388;1272;22575;-81
2023/03/07 11:49:29;;;;;;;19.60;12.70;;;;;;;7.26;52.08;97169.57;136363;1272;22582;-82
2023/03/07 11:52:32;;;;;;;19.30;13.20;;;;;;;7.15;51.55;97168.55;136560;1272;22967;-81
2023/03/07 11:55:35;;;;;;;17.80;13.60;;;;;;;7.12;52.99;97172.19;136363;1272;22984;-82
2023/03/07 11:58:38;;;;;;;23.60;15.40;;;;;;;7.17;53.42;97170.63;136511;1272;24368;-82
2023/03/07 12:01:40;;;;;;;22.30;14.70;;;;;;;7.30;53.89;97167.66;136366;1272;24891;-81
2023/03/07 12:04:43;;;;;;;20.80;14.20;;;;;;;7.51;53.45;97162.75;136130;1272;22538;-82
2023/03/07 12:07:46;;;;;;;19.10;14.10;;;;;;;7.71;52.99;97154.20;136300;1272;22649;-80
2023/03/07 12:10:49;;;;;;;23.90;14.30;;;;;;;7.76;53.28;97148.83;135234;1272;22510;-82
2023/03/07 12:13:53;;;;;;;22.50;14.40;;;;;;;7.70;52.40;97153.00;136474;1272;22534;-82
2023/03/07 12:16:55;;;;;;;27.50;14.00;;;;;;;7.54;52.23;97149.77;136473;1257;22530;-82
2023/03/07 12:19:58;;;;;;;23.60;13.90;;;;;;;7.51;52.47;97148.74;135751;1272;22534;-82
2023/03/07 12:23:01;;;;;;;20.40;13.50;;;;;;;7.60;52.57;97147.50;136377;1272;22559;-83
2023/03/07 12:26:05;;;;;;;18.00;12.50;;;;;;;7.61;51.26;97142.98;136277;1272;22611;-82
2023/03/07 12:29:11;;;;;;;15.80;12.10;;;;;;;7.52;50.39;97141.46;136451;1272;24675;-83
2023/03/07 12:32:17;;;;;;;17.10;11.50;;;;;;;7.46;50.60;97140.10;136481;1272;23077;-82
2023/03/07 12:35:19;;;;;;;13.60;10.90;;;;;;;7.49;50.74;97137.48;136326;1272;23091;-83
2023/03/07 12:38:23;;;;;;;23.40;11.70;;;;;;;7.51;51.53;97142.51;136687;1272;23876;-82
2023/03/07 12:41:26;;;;;;;19.50;11.60;;;;;;;7.64;51.74;97133.46;136735;1272;22613;-83
2023/03/07 12:44:28;;;;;;;14.30;11.40;;;;;;;7.81;51.45;97133.92;136582;1272;22593;-82
2023/03/07 12:47:31;;;;;;;20.40;11.70;;;;;;;7.89;50.00;97132.86;136790;1272;22558;-83
2023/03/07 12:50:35;;;;;;;18.90;11.00;;;;;;;7.93;50.58;97136.30;136617;1273;23002;-82
2023/03/07 12:53:38;;;;;;;23.50;11.40;;;;;;;7.98;50.44;97127.97;136714;1273;22583;-81
2023/03/07 12:56:42;;;;;;;15.10;11.90;;;;;;;7.94;49.20;97127.99;136852;1270;22262;-82
2023/03/07 12:59:44;;;;;;;16.40;11.90;;;;;;;7.92;49.76;97126.44;136711;1270;22490;-81
2023/03/07 13:02:49;;;;;;;16.10;11.60;;;;;;;7.99;50.54;97118.95;136827;1270;22538;-81
2023/03/07 13:05:53;;;;;;;16.40;11.30;;;;;;;8.14;50.12;97116.96;136672;1273;22711;-81
2023/03/07 13:12:22;;;;;;;18.40;12.20;;;;;;;8.18;49.61;97109.66;137115;1273;22610;-80
2023/03/07 13:15:33;;;;;;;15.80;11.20;;;;;;;8.22;49.24;97105.99;137232;1273;22536;-82
2023/03/07 13:18:36;;;;;;;20.10;12.20;;;;;;;8.20;48.65;97100.80;137221;1273;22170;-81
2023/03/07 13:21:38;;;;;;;21.70;12.20;;;;;;;8.04;48.93;97105.24;137205;1273;22537;-82
2023/03/07 13:24:42;;;;;;;15.50;11.70;;;;;;;8.11;49.90;97105.71;137082;1273;23734;-80
2023/03/07 13:27:46;;;;;;;16.80;13.30;;;;;;;8.20;49.37;97101.67;137090;1273;22561;-81
2023/03/07 13:30:49;;;;;;;17.00;13.40;;;;;;;8.14;49.83;97101.36;134740;1273;22542;-81
2023/03/07 13:33:51;;;;;;;20.30;12.50;;;;;;;8.17;49.52;97095.45;137168;1257;22555;-80
2023/03/07 13:36:54;;;;;;;15.40;12.70;;;;;;;8.03;49.54;97100.23;137191;1273;23085;-81
2023/03/07 13:39:56;;;;;;;17.70;12.60;;;;;;;7.99;50.51;97099.20;137065;1273;23092;-80
2023/03/07 13:43:00;;;;;;;17.10;12.30;;;;;;;7.91;50.75;97097.34;137104;1273;22662;-82
2023/03/07 13:46:02;;;;;;;17.90;12.50;;;;;;;7.79;50.86;97097.39;136975;1273;22609;-82
2023/03/07 13:49:05;;;;;;;23.50;13.70;;;;;;;7.77;50.97;97093.76;136951;1272;22565;-80
2023/03/07 13:52:10;;;;;;;19.40;13.00;;;;;;;7.86;51.56;97082.30;137200;1272;22518;-83
2023/03/07 13:55:14;;;;;;;18.50;12.70;;;;;;;7.95;51.07;97082.25;137016;1272;23124;-80
2023/03/07 13:58:17;;;;;;;17.10;12.50;;;;;;;7.91;51.31;97079.52;136862;1272;22542;-80
2023/03/07 14:01:20;;;;;;;23.30;12.90;;;;;;;7.86;52.02;97075.90;136546;1272;22583;-81
2023/03/07 14:04:22;;;;;;;18.00;13.30;;;;;;;7.85;51.11;97075.90;135592;1272;25377;-81